Airfield :
LOGIN :

Register | Disclaimer

   EN    FR    IT 

 










Legend :    VFR   Marginal VFR   IFR   Intensive IFR   Very Intensive IFR
Visi :
Ceiling :
>= 8 km
>= 3000ft
5 to 8 km
1000 to 3000 ft
1500m to 5 km
500 to 1000 ft
800 to 1500m
200 to 500 ft
< 800m
< 200 ft
Symbols :   Thunderstorms  Fog  Heavy snow  Heavy precipitations  Wind > 20 kt
SIGMETs :     Misc.  Thunderstorms  Icing  Turbulence  Mountain Waves  Volcanic Ashes






- Airport Elevation : 90 ft
- IATA code : NTE


LFRS - Nantes

CURRENT METAR :
  • 151230Z AUTO 33006KT 300V010 CAVOK 08/04 Q1002 BECMG BKN008

EXPIRED METARs :
  • 151200Z AUTO 34006KT 310V030 CAVOK 08/04 Q1002 BECMG BKN008
  • 151130Z AUTO 34006KT 300V050 CAVOK 08/04 Q1002
  • 151100Z AUTO 34006KT 310V030 CAVOK 07/04 Q1002 NOSIG
  • 151030Z AUTO 35006KT 310V040 CAVOK 07/03 Q1002 NOSIG
  • 151000Z AUTO 36003KT 320V050 CAVOK 05/04 Q1002 NOSIG
  • 150930Z AUTO VRB03KT CAVOK 04/03 Q1002 NOSIG

TAF TAF LFRS
Valid from the 15 at 12:00 until the 16 at 18:00 UTC


151100Z 1512/1618 33005KT 9999 BKN050
BECMG 1512/1515 28008KT -RA BKN008
TEMPO 1518/1610 4000 -RA BKN012
ATIS : +33 2 40 05 12 74



MET'MAP, your aeronautical weather chart ! - Copyright ORBIFLY December 2007 - Disclaimer

ORBIFLY MET'MAP TEAM :

Programming & Development : Alexandra Zaïnal
Concept & Development : Baudouin d'Aumeries
Co-Development & Prog : Marc-Olivier Méhu
Technical & hardware support : Manuel Goepfert

Contact : metmap@orbifly.com




SOURCES & CREDITS :

   NOAA